Time;durP1;ratioP1;P1;durP2;ratioP2;P2;SDS_P1;SDS_P2;PMS_P1;PMS_P2;Temp;Humidity;BMP_temperature;BMP_pressure;BME280_temperature;BME280_humidity;BME280_pressure;Samples;Min_cycle;Max_cycle;Signal;HPM_P1;HPM_P2
2022/09/13 00:01:19;;;;;;;16.48;13.07;;;17.70;99.90;;;;;;5103280;27;20455;-67
2022/09/13 00:03:44;;;;;;;16.55;13.50;;;17.70;99.90;;;;;;5108592;28;20032;-67
2022/09/13 00:06:13;;;;;;;15.25;12.73;;;17.60;99.90;;;;;;5111222;28;20039;-68
2022/09/13 00:08:39;;;;;;;18.67;13.70;;;17.60;99.90;;;;;;5114003;28;20027;-68
2022/09/13 00:11:05;;;;;;;17.67;14.02;;;17.60;99.90;;;;;;5096724;28;20055;-67
2022/09/13 00:13:31;;;;;;;15.65;13.13;;;17.60;99.90;;;;;;5096541;28;21153;-67
2022/09/13 00:15:57;;;;;;;17.10;12.77;;;17.60;99.90;;;;;;5115222;28;20502;-67
2022/09/13 00:18:24;;;;;;;14.70;11.65;;;17.60;99.90;;;;;;5113947;28;20114;-68
2022/09/13 00:20:49;;;;;;;17.50;12.55;;;17.50;99.90;;;;;;5114958;28;20048;-68
2022/09/13 00:23:15;;;;;;;15.63;12.20;;;17.60;99.90;;;;;;5112658;28;20407;-67
2022/09/13 00:25:41;;;;;;;14.95;11.57;;;17.60;99.90;;;;;;5114949;28;20031;-68
2022/09/13 00:28:06;;;;;;;15.63;11.13;;;17.60;99.90;;;;;;5115070;28;20441;-67
2022/09/13 00:30:33;;;;;;;15.93;11.23;;;17.60;99.90;;;;;;5114821;28;20040;-67
2022/09/13 00:32:58;;;;;;;18.33;12.52;;;17.60;99.90;;;;;;5114751;28;20048;-66
2022/09/13 00:35:24;;;;;;;18.55;12.65;;;17.60;99.90;;;;;;5112326;28;20039;-66
2022/09/13 00:37:50;;;;;;;14.82;11.68;;;17.60;99.90;;;;;;5098717;28;20040;-66
2022/09/13 00:40:16;;;;;;;17.20;13.30;;;17.60;99.90;;;;;;5094252;28;20039;-66
2022/09/13 00:42:41;;;;;;;19.13;12.95;;;17.50;99.90;;;;;;5109903;28;20058;-67
2022/09/13 00:45:10;;;;;;;16.90;12.63;;;17.40;99.90;;;;;;5114594;28;20043;-66
2022/09/13 00:47:45;;;;;;;15.63;12.13;;;17.40;99.90;;;;;;5114464;28;20096;-67
2022/09/13 00:50:16;;;;;;;15.30;11.40;;;17.40;99.90;;;;;;5114289;28;20035;-67
2022/09/13 00:52:46;;;;;;;16.02;12.15;;;17.40;99.90;;;;;;5114455;28;20048;-68
2022/09/13 00:55:51;;;;;;;16.23;12.23;;;17.40;99.90;;;;;;5114342;28;20051;-67
2022/09/13 00:58:42;;;;;;;13.32;10.35;;;17.40;99.90;;;;;;5083452;28;20043;-67
2022/09/13 01:01:11;;;;;;;14.75;11.27;;;17.40;99.90;;;;;;5100558;28;20101;-67
2022/09/13 01:03:38;;;;;;;16.25;11.60;;;17.40;99.90;;;;;;5093885;28;20040;-67
2022/09/13 01:06:10;;;;;;;16.40;11.38;;;17.40;99.90;;;;;;5109156;28;20407;-67
2022/09/13 01:08:40;;;;;;;14.23;11.32;;;17.40;99.90;;;;;;5114171;28;20032;-68
2022/09/13 01:11:10;;;;;;;16.48;11.75;;;17.40;99.90;;;;;;5113930;28;20403;-68
2022/09/13 01:13:38;;;;;;;14.00;10.45;;;17.40;99.90;;;;;;5113045;28;20023;-68
2022/09/13 01:16:04;;;;;;;13.00;10.57;;;17.50;99.90;;;;;;5114081;27;20445;-68
2022/09/13 01:18:30;;;;;;;14.68;10.98;;;17.40;99.90;;;;;;5112940;28;20514;-67
2022/09/13 01:21:38;;;;;;;13.77;10.80;;;17.40;99.90;;;;;;5113924;28;20077;-67
2022/09/13 01:24:25;;;;;;;13.02;10.15;;;17.40;99.90;;;;;;5113901;28;20035;-67
2022/09/13 01:27:10;;;;;;;15.13;9.45;;;17.50;99.90;;;;;;5113889;28;20039;-68
2022/09/13 01:29:54;;;;;;;14.18;9.90;;;17.50;99.90;;;;;;5106296;28;20381;-68
2022/09/13 01:32:26;;;;;;;13.77;10.10;;;17.60;99.90;;;;;;5104208;28;20039;-67
2022/09/13 01:35:06;;;;;;;;;;;17.60;99.90;;;;;;5105035;27;20050;-69
2022/09/13 01:37:38;;;;;;;13.52;9.43;;;17.60;99.90;;;;;;5113590;28;19943;-67
2022/09/13 01:40:42;;;;;;;13.00;9.98;;;17.60;99.90;;;;;;5112629;28;20058;-67
2022/09/13 01:43:38;;;;;;;14.68;9.52;;;17.60;99.90;;;;;;5002419;28;20046;-68
2022/09/13 01:46:21;;;;;;;14.60;10.30;;;17.60;99.90;;;;;;5013885;28;20117;-67
2022/09/13 01:49:24;;;;;;;13.93;10.02;;;17.60;99.90;;;;;;5096315;28;20047;-67
2022/09/13 01:52:01;;;;;;;14.02;10.30;;;17.60;99.90;;;;;;5109976;28;20407;-67
2022/09/13 01:54:35;;;;;;;13.13;10.10;;;17.60;99.90;;;;;;5115058;28;20518;-67
2022/09/13 01:57:18;;;;;;;14.07;10.88;;;17.60;99.90;;;;;;5116547;28;20040;-67
2022/09/13 02:00:03;;;;;;;15.23;10.38;;;17.60;99.90;;;;;;5116866;28;20157;-68
2022/09/13 02:02:50;;;;;;;15.57;10.85;;;17.60;99.90;;;;;;5104843;27;20043;-68
2022/09/13 02:05:44;;;;;;;15.32;11.25;;;17.60;99.90;;;;;;5105028;27;21606;-68
2022/09/13 02:08:15;;;;;;;16.08;11.30;;;17.60;99.90;;;;;;5115098;27;20035;-67
2022/09/13 02:11:09;;;;;;;14.48;11.05;;;17.50;99.90;;;;;;5116410;27;20043;-67
2022/09/13 02:13:40;;;;;;;16.92;11.80;;;17.50;99.90;;;;;;5097241;28;20032;-67
2022/09/13 02:16:17;;;;;;;15.30;11.43;;;17.50;99.90;;;;;;5109420;28;20084;-67
2022/09/13 02:18:50;;;;;;;16.17;12.32;;;17.50;99.90;;;;;;5116509;28;20071;-68
2022/09/13 02:21:25;;;;;;;15.38;12.75;;;17.60;99.90;;;;;;5099049;27;20036;-68
2022/09/13 02:24:04;;;;;;;17.20;13.75;;;17.60;99.90;;;;;;5099789;28;20086;-67
2022/09/13 02:26:32;;;;;;;20.83;14.73;;;17.50;99.90;;;;;;5115857;28;20075;-68
2022/09/13 02:29:05;;;;;;;18.58;14.75;;;17.40;99.90;;;;;;5113324;28;20038;-68
2022/09/13 02:31:39;;;;;;;19.38;14.75;;;17.40;99.90;;;;;;5108645;27;20058;-68
2022/09/13 02:34:14;;;;;;;20.98;15.27;;;17.40;99.90;;;;;;5104991;28;20508;-68
2022/09/13 02:36:43;;;;;;;18.23;14.90;;;17.40;99.90;;;;;;5100238;28;20038;-67
2022/09/13 02:39:14;;;;;;;20.13;15.52;;;17.40;99.90;;;;;;5111571;27;20032;-66
2022/09/13 02:41:57;;;;;;;18.83;15.27;;;17.30;99.90;;;;;;5119363;27;20081;-67
2022/09/13 02:44:36;;;;;;;20.83;15.25;;;17.30;99.90;;;;;;5106722;28;20325;-67
2022/09/13 02:47:39;;;;;;;18.30;14.60;;;17.40;99.90;;;;;;5123536;27;20075;-68
2022/09/13 02:50:42;;;;;;;18.83;14.55;;;17.40;99.90;;;;;;5114272;28;20412;-67
2022/09/13 02:53:40;;;;;;;19.92;14.70;;;17.40;99.90;;;;;;5110928;28;20081;-67
2022/09/13 02:56:45;;;;;;;19.00;15.35;;;17.50;99.90;;;;;;5102939;28;20123;-66
2022/09/13 02:59:15;;;;;;;19.65;15.70;;;17.50;99.90;;;;;;5112069;28;20043;-67
2022/09/13 03:01:45;;;;;;;20.35;15.38;;;17.50;99.90;;;;;;5106599;27;20040;-67
2022/09/13 03:04:11;;;;;;;19.67;16.23;;;17.40;99.90;;;;;;5099466;28;20044;-67
2022/09/13 03:06:37;;;;;;;20.52;16.92;;;17.50;99.90;;;;;;5114061;28;20119;-67
2022/09/13 03:09:05;;;;;;;24.00;17.10;;;17.40;99.90;;;;;;5111144;28;20046;-67
2022/09/13 03:12:04;;;;;;;21.92;17.48;;;17.60;99.90;;;;;;5130541;27;20047;-67
2022/09/13 03:14:39;;;;;;;24.88;17.85;;;17.50;99.90;;;;;;5115531;28;20384;-67
2022/09/13 03:17:20;;;;;;;21.38;16.05;;;17.40;99.90;;;;;;5115173;28;20042;-68
2022/09/13 03:19:54;;;;;;;24.63;18.92;;;17.40;99.90;;;;;;5105149;27;20035;-67
2022/09/13 03:22:35;;;;;;;23.60;18.08;;;17.40;99.90;;;;;;5110321;28;20546;-68
2022/09/13 03:25:08;;;;;;;25.42;18.77;;;17.40;99.90;;;;;;5110197;28;20464;-67
2022/09/13 03:28:01;;;;;;;25.00;19.40;;;17.50;99.90;;;;;;5111656;27;20464;-67
2022/09/13 03:30:27;;;;;;;26.85;19.25;;;17.50;99.90;;;;;;5097536;28;20059;-67
2022/09/13 03:33:19;;;;;;;23.83;18.27;;;17.40;99.90;;;;;;5108553;28;20075;-67
2022/09/13 03:35:56;;;;;;;24.77;19.95;;;17.40;99.90;;;;;;5098493;27;20032;-68
2022/09/13 03:38:29;;;;;;;24.80;17.80;;;17.40;99.90;;;;;;5110441;28;20047;-68
2022/09/13 03:41:15;;;;;;;23.85;18.20;;;17.40;99.90;;;;;;5108552;27;20495;-68
2022/09/13 03:43:49;;;;;;;25.15;19.10;;;17.40;99.90;;;;;;5093615;28;20043;-67
2022/09/13 03:46:38;;;;;;;22.95;18.08;;;17.40;99.90;;;;;;5114499;28;20035;-68
2022/09/13 03:49:09;;;;;;;23.33;18.58;;;17.40;99.90;;;;;;5114963;28;20453;-67
2022/09/13 03:51:35;;;;;;;24.27;18.00;;;17.40;99.90;;;;;;5118421;27;20472;-68
2022/09/13 03:54:09;;;;;;;22.10;17.52;;;17.50;99.90;;;;;;5097842;28;20047;-67
2022/09/13 03:56:34;;;;;;;23.63;18.65;;;17.50;99.90;;;;;;5094537;27;20107;-67
2022/09/13 03:59:00;;;;;;;22.08;17.88;;;17.50;99.90;;;;;;5102399;28;20556;-67
2022/09/13 04:01:26;;;;;;;21.95;16.60;;;17.50;99.90;;;;;;5123421;27;20048;-68
2022/09/13 04:03:51;;;;;;;22.25;18.48;;;17.60;99.90;;;;;;5110091;28;20054;-67
2022/09/13 04:06:17;;;;;;;24.20;18.67;;;17.60;99.90;;;;;;5095813;28;20051;-68
2022/09/13 04:08:43;;;;;;;20.35;16.63;;;17.60;99.90;;;;;;5114400;27;20027;-68
2022/09/13 04:11:09;;;;;;;21.00;16.95;;;17.60;99.90;;;;;;5115300;28;20043;-68
2022/09/13 04:13:35;;;;;;;19.98;15.93;;;17.60;99.90;;;;;;5112955;28;20047;-67
2022/09/13 04:16:02;;;;;;;18.02;14.45;;;17.60;99.90;;;;;;5106185;28;20392;-67
2022/09/13 04:18:28;;;;;;;16.77;13.75;;;17.70;99.90;;;;;;5114881;28;20032;-67
2022/09/13 04:20:56;;;;;;;13.70;11.68;;;17.60;99.90;;;;;;5111791;28;20483;-67
2022/09/13 04:23:23;;;;;;;15.63;11.52;;;17.70;99.90;;;;;;5114852;28;20092;-68
2022/09/13 04:25:50;;;;;;;16.70;10.45;;;17.70;99.90;;;;;;5114151;28;20032;-67
2022/09/13 04:28:19;;;;;;;13.50;11.05;;;17.70;99.90;;;;;;5113540;28;20035;-68
2022/09/13 04:30:46;;;;;;;13.30;10.27;;;17.70;99.90;;;;;;5093070;28;20066;-67
2022/09/13 04:33:12;;;;;;;13.70;10.30;;;17.70;99.90;;;;;;5101613;28;20046;-67
2022/09/13 04:35:38;;;;;;;15.13;11.30;;;17.60;99.90;;;;;;5094603;28;20115;-68
2022/09/13 04:38:04;;;;;;;14.13;9.90;;;17.70;99.90;;;;;;5104815;28;20111;-68
2022/09/13 04:40:30;;;;;;;13.32;10.27;;;17.70;99.90;;;;;;5108703;28;20075;-67
2022/09/13 04:42:56;;;;;;;14.77;10.57;;;17.70;99.90;;;;;;5110861;28;20088;-68
2022/09/13 04:45:22;;;;;;;13.63;9.90;;;17.70;99.90;;;;;;5102117;28;20119;-67
2022/09/13 04:47:55;;;;;;;14.32;9.93;;;17.70;99.90;;;;;;5097804;28;20036;-67
2022/09/13 04:50:22;;;;;;;12.63;9.10;;;17.70;99.90;;;;;;5103381;28;20043;-68
2022/09/13 04:52:47;;;;;;;10.90;7.85;;;17.70;99.90;;;;;;5082242;28;20053;-68
2022/09/13 04:55:13;;;;;;;11.13;8.35;;;17.70;99.90;;;;;;5093459;28;20044;-68
2022/09/13 04:57:39;;;;;;;9.90;7.85;;;17.70;99.90;;;;;;5108215;28;20024;-68
2022/09/13 05:00:06;;;;;;;10.93;7.18;;;17.70;99.90;;;;;;5097027;28;20479;-67
2022/09/13 05:02:31;;;;;;;9.82;6.88;;;17.70;99.90;;;;;;5109844;27;20054;-68
2022/09/13 05:04:57;;;;;;;13.88;8.15;;;17.60;99.90;;;;;;5096813;28;20056;-68
2022/09/13 05:07:22;;;;;;;11.23;7.47;;;17.60;99.90;;;;;;5102692;28;20035;-68
2022/09/13 05:09:48;;;;;;;12.80;7.05;;;17.70;99.90;;;;;;5092954;28;20479;-68
2022/09/13 05:12:14;;;;;;;10.23;6.85;;;17.60;99.90;;;;;;5102910;28;20032;-67
2022/09/13 05:14:40;;;;;;;10.68;6.60;;;17.70;99.90;;;;;;5103543;28;20500;-67
2022/09/13 05:17:05;;;;;;;9.65;5.63;;;17.60;99.90;;;;;;5110645;28;20027;-68
2022/09/13 05:19:31;;;;;;;8.73;5.20;;;17.60;99.90;;;;;;5097361;28;20119;-68
2022/09/13 05:21:57;;;;;;;8.82;4.93;;;17.50;99.90;;;;;;5103928;27;20044;-68
2022/09/13 05:24:22;;;;;;;8.00;4.75;;;17.60;99.90;;;;;;5093068;28;20422;-68
2022/09/13 05:26:48;;;;;;;7.95;4.95;;;17.60;99.90;;;;;;5118883;27;20488;-68
2022/09/13 05:29:14;;;;;;;6.93;4.13;;;17.60;99.90;;;;;;5102217;28;20063;-68
2022/09/13 05:31:41;;;;;;;7.30;4.57;;;17.60;99.90;;;;;;5114176;27;20040;-68
2022/09/13 05:34:10;;;;;;;8.38;4.32;;;17.60;99.90;;;;;;5110354;28;20028;-68
2022/09/13 05:36:36;;;;;;;9.48;5.05;;;17.60;99.90;;;;;;5093891;28;20036;-68
2022/09/13 05:39:02;;;;;;;7.32;4.07;;;17.60;99.90;;;;;;5107841;27;20411;-68
2022/09/13 05:41:28;;;;;;;8.55;4.82;;;17.60;99.90;;;;;;5104081;28;20074;-68
2022/09/13 05:43:53;;;;;;;9.05;5.00;;;17.60;99.90;;;;;;5106187;28;20059;-68
2022/09/13 05:46:20;;;;;;;7.22;3.70;;;17.60;99.90;;;;;;5093765;28;20513;-68
2022/09/13 05:48:47;;;;;;;5.57;2.92;;;17.60;99.90;;;;;;5108769;28;20118;-68
2022/09/13 05:51:17;;;;;;;4.78;2.42;;;17.70;99.90;;;;;;5099047;28;20035;-68
2022/09/13 05:53:45;;;;;;;4.60;2.30;;;17.70;99.90;;;;;;5104553;28;20036;-68
2022/09/13 05:56:16;;;;;;;6.22;2.83;;;17.70;99.90;;;;;;5098320;28;20057;-68
2022/09/13 05:58:44;;;;;;;5.97;2.72;;;17.70;99.90;;;;;;5102000;28;20047;-68
2022/09/13 06:01:11;;;;;;;4.07;2.40;;;17.70;99.90;;;;;;5106831;28;20043;-68
2022/09/13 06:03:37;;;;;;;5.20;2.30;;;17.60;99.90;;;;;;5110025;28;20035;-68
2022/09/13 06:06:04;;;;;;;4.38;2.22;;;17.60;99.90;;;;;;5145703;27;20039;-68
2022/09/13 06:08:32;;;;;;;3.85;1.95;;;17.70;99.90;;;;;;5113434;28;20365;-68
2022/09/13 06:11:10;;;;;;;4.97;2.20;;;17.60;99.90;;;;;;5112173;28;20039;-68
2022/09/13 06:13:36;;;;;;;5.03;2.20;;;17.70;99.90;;;;;;5110234;28;20422;-68
2022/09/13 06:16:05;;;;;;;6.70;2.25;;;17.60;99.90;;;;;;5095930;28;20075;-68
2022/09/13 06:18:31;;;;;;;6.40;2.42;;;17.70;99.90;;;;;;5102696;28;20031;-68
2022/09/13 06:21:02;;;;;;;4.78;2.08;;;17.60;99.90;;;;;;5097615;28;20044;-68
2022/09/13 06:23:28;;;;;;;3.55;1.77;;;17.60;99.90;;;;;;5107166;28;20031;-68
2022/09/13 06:26:07;;;;;;;5.93;2.10;;;17.60;99.90;;;;;;5109807;28;20483;-68
2022/09/13 06:28:35;;;;;;;4.32;2.10;;;17.60;99.90;;;;;;5092473;28;20044;-68
2022/09/13 06:31:04;;;;;;;3.88;1.80;;;17.60;99.90;;;;;;5097776;28;20075;-68
2022/09/13 06:33:32;;;;;;;5.70;2.00;;;17.60;99.90;;;;;;5113329;28;20063;-68
2022/09/13 06:36:03;;;;;;;5.45;1.70;;;17.60;99.90;;;;;;5112239;28;20086;-68
2022/09/13 06:38:28;;;;;;;5.10;1.75;;;17.60;99.90;;;;;;5111910;28;20488;-68
2022/09/13 06:41:06;;;;;;;3.88;1.40;;;17.60;99.90;;;;;;5113835;28;20027;-68
2022/09/13 06:43:32;;;;;;;4.40;1.50;;;17.60;99.90;;;;;;5115795;28;20032;-68
2022/09/13 06:46:00;;;;;;;5.80;1.77;;;17.60;99.90;;;;;;5116924;28;20039;-68
2022/09/13 06:48:25;;;;;;;5.70;1.75;;;17.60;99.90;;;;;;5115137;28;20085;-68
2022/09/13 06:50:51;;;;;;;4.95;1.73;;;17.60;99.90;;;;;;5115827;28;20031;-68
2022/09/13 06:53:17;;;;;;;7.15;2.05;;;17.60;99.90;;;;;;5116469;28;20491;-68
2022/09/13 06:55:42;;;;;;;9.35;2.40;;;17.70;99.90;;;;;;5115637;28;20043;-68
2022/09/13 06:58:08;;;;;;;3.83;2.10;;;17.70;99.90;;;;;;5148808;27;20099;-68
2022/09/13 07:00:33;;;;;;;5.15;1.88;;;17.60;99.90;;;;;;5116510;28;20510;-68
2022/09/13 07:02:59;;;;;;;4.80;1.80;;;17.70;99.90;;;;;;5114311;28;20530;-69
2022/09/13 07:05:24;;;;;;;7.93;2.05;;;17.60;99.90;;;;;;5115216;28;20487;-69
2022/09/13 07:07:50;;;;;;;7.85;2.28;;;17.70;99.90;;;;;;5116423;28;20395;-69
2022/09/13 07:10:16;;;;;;;6.57;2.03;;;17.70;99.90;;;;;;5115536;28;20034;-69
2022/09/13 07:12:41;;;;;;;11.15;2.20;;;17.70;99.90;;;;;;5096769;28;20044;-69
2022/09/13 07:15:07;;;;;;;4.68;1.80;;;17.70;99.90;;;;;;5115155;28;20499;-68
2022/09/13 07:17:33;;;;;;;4.93;1.65;;;17.70;99.90;;;;;;5113941;28;20053;-68
2022/09/13 07:19:59;;;;;;;6.40;2.13;;;17.70;99.90;;;;;;5116223;28;20484;-68
2022/09/13 07:22:26;;;;;;;5.45;2.05;;;17.70;99.90;;;;;;5113690;27;20038;-68
2022/09/13 07:24:52;;;;;;;7.15;2.10;;;17.80;99.90;;;;;;5116182;27;20119;-68
2022/09/13 07:27:18;;;;;;;7.13;1.77;;;17.80;99.90;;;;;;5115144;28;20036;-68
2022/09/13 07:29:43;;;;;;;6.35;1.88;;;17.80;99.90;;;;;;5116066;28;20042;-68
2022/09/13 07:32:09;;;;;;;7.85;1.88;;;17.90;99.90;;;;;;5114715;28;20119;-69
2022/09/13 07:34:34;;;;;;;5.45;1.70;;;17.90;99.90;;;;;;5115883;28;20160;-69
2022/09/13 07:37:01;;;;;;;5.60;1.65;;;17.90;99.90;;;;;;5111055;28;20043;-69
2022/09/13 07:39:26;;;;;;;5.70;1.60;;;18.00;99.90;;;;;;5107448;27;20046;-69
2022/09/13 07:41:52;;;;;;;6.60;1.67;;;18.10;99.90;;;;;;5113331;27;20048;-68
2022/09/13 07:44:18;;;;;;;7.30;1.40;;;18.20;99.90;;;;;;5113852;28;20071;-69
2022/09/13 07:46:44;;;;;;;5.10;1.45;;;18.30;99.90;;;;;;5114248;28;20028;-69
2022/09/13 07:49:11;;;;;;;4.38;1.30;;;18.30;99.90;;;;;;5095433;28;20036;-68
2022/09/13 07:51:38;;;;;;;5.15;1.35;;;18.50;99.90;;;;;;5107013;28;20445;-69
2022/09/13 07:54:08;;;;;;;6.55;1.45;;;18.50;99.90;;;;;;5114473;28;20044;-69
2022/09/13 07:56:36;;;;;;;5.57;1.30;;;18.60;99.90;;;;;;5111103;28;20036;-69
2022/09/13 07:59:05;;;;;;;7.95;1.30;;;18.60;99.90;;;;;;5112832;27;20035;-69
2022/09/13 08:01:36;;;;;;;3.45;1.15;;;18.70;99.90;;;;;;5116297;27;20628;-68
2022/09/13 08:04:04;;;;;;;6.77;1.50;;;18.80;99.90;;;;;;5115268;28;20412;-69
2022/09/13 08:06:31;;;;;;;4.97;1.10;;;18.90;99.90;;;;;;5113583;28;20039;-68
2022/09/13 08:08:57;;;;;;;3.85;1.00;;;19.00;99.90;;;;;;5098376;28;20514;-69
2022/09/13 08:11:27;;;;;;;5.22;1.15;;;19.00;99.90;;;;;;5108018;28;20039;-69
2022/09/13 08:13:53;;;;;;;9.40;1.23;;;19.00;99.90;;;;;;5114669;28;20118;-69
2022/09/13 08:16:21;;;;;;;6.95;1.15;;;18.90;99.90;;;;;;5114309;28;20126;-68
2022/09/13 08:18:48;;;;;;;7.78;1.30;;;18.90;99.90;;;;;;5114110;28;20046;-69
2022/09/13 08:21:14;;;;;;;6.65;1.10;;;18.90;99.90;;;;;;5111954;28;20487;-68
2022/09/13 08:23:40;;;;;;;6.20;1.10;;;18.90;99.90;;;;;;5100140;28;20115;-68
2022/09/13 08:26:07;;;;;;;6.35;1.17;;;19.00;99.90;;;;;;5114836;28;20043;-68
2022/09/13 08:28:34;;;;;;;9.13;1.35;;;19.00;99.90;;;;;;5110359;28;20035;-68
2022/09/13 08:31:12;;;;;;;3.83;0.70;;;19.10;99.90;;;;;;5114983;28;20035;-68
2022/09/13 08:33:38;;;;;;;4.45;0.85;;;19.10;99.90;;;;;;5094143;28;20036;-68
2022/09/13 08:36:05;;;;;;;7.40;1.30;;;19.20;99.90;;;;;;5094434;28;20474;-68
2022/09/13 08:38:31;;;;;;;4.75;0.90;;;19.10;99.90;;;;;;5113630;28;20063;-68
2022/09/13 08:41:05;;;;;;;6.05;0.90;;;19.10;99.90;;;;;;5114200;28;20376;-70
2022/09/13 08:43:45;;;;;;;4.03;0.93;;;19.10;99.90;;;;;;5106815;27;20035;-68
2022/09/13 08:46:27;;;;;;;8.27;0.90;;;19.20;99.90;;;;;;5112723;28;20044;-68
2022/09/13 08:48:59;;;;;;;;;;;19.20;99.90;;;;;;5114987;28;20120;-68
2022/09/13 08:51:36;;;;;;;6.32;0.90;;;19.30;99.90;;;;;;5107965;28;20380;-68
2022/09/13 08:54:02;;;;;;;4.00;0.80;;;19.30;99.90;;;;;;5114401;28;20054;-68
2022/09/13 08:56:41;;;;;;;6.57;1.00;;;19.40;99.90;;;;;;5113527;28;20456;-68
2022/09/13 08:59:31;;;;;;;3.83;0.95;;;19.50;99.90;;;;;;5109800;28;20123;-68
2022/09/13 09:02:18;;;;;;;5.88;1.05;;;19.40;99.90;;;;;;5111131;28;20134;-69
2022/09/13 09:04:49;;;;;;;3.80;0.90;;;19.40;99.90;;;;;;5094604;28;23267;-69
2022/09/13 09:07:30;;;;;;;4.97;0.85;;;19.50;99.90;;;;;;5092848;28;20100;-69
2022/09/13 09:10:22;;;;;;;4.53;0.73;;;19.50;99.90;;;;;;5102735;28;20042;-69
2022/09/13 09:12:49;;;;;;;5.85;1.10;;;19.60;99.90;;;;;;5093045;27;20121;-69
2022/09/13 09:15:20;;;;;;;3.40;1.00;;;19.70;99.90;;;;;;5105742;28;20051;-69
2022/09/13 09:18:12;;;;;;;5.80;1.48;;;19.70;99.90;;;;;;5095473;28;20036;-69
2022/09/13 09:20:45;;;;;;;7.82;1.33;;;19.80;99.90;;;;;;5116249;27;20038;-69
2022/09/13 09:23:33;;;;;;;5.00;1.00;;;19.70;99.90;;;;;;5100387;28;20560;-69
2022/09/13 09:26:17;;;;;;;6.00;1.02;;;19.70;99.90;;;;;;5094695;28;20412;-69
2022/09/13 09:28:49;;;;;;;10.48;1.38;;;19.60;99.90;;;;;;5109194;28;20051;-69
2022/09/13 09:31:41;;;;;;;3.97;0.90;;;19.60;99.90;;;;;;5109838;28;20035;-69
2022/09/13 09:34:22;;;;;;;3.63;1.10;;;19.50;99.90;;;;;;5113973;28;20040;-69
2022/09/13 09:37:03;;;;;;;3.45;0.80;;;19.70;99.90;;;;;;5110729;28;20040;-70
2022/09/13 09:39:37;;;;;;;7.88;1.00;;;19.80;99.90;;;;;;5102848;28;20098;-70
2022/09/13 09:42:09;;;;;;;3.75;0.75;;;19.90;99.90;;;;;;5106645;28;20555;-70
2022/09/13 09:44:38;;;;;;;6.70;0.95;;;20.00;99.90;;;;;;5107296;28;20040;-69
2022/09/13 09:47:21;;;;;;;4.70;1.15;;;20.00;99.90;;;;;;5112429;28;20035;-69
2022/09/13 09:50:08;;;;;;;3.30;0.95;;;20.10;99.90;;;;;;5105096;28;20036;-70
2022/09/13 09:52:56;;;;;;;6.05;1.20;;;20.30;99.90;;;;;;5105996;28;20152;-69
2022/09/13 09:55:29;;;;;;;6.05;1.00;;;20.30;99.90;;;;;;5106490;28;20044;-69
2022/09/13 09:57:57;;;;;;;6.38;0.98;;;20.20;99.90;;;;;;5110276;28;20067;-69
2022/09/13 10:00:28;;;;;;;9.02;1.35;;;20.20;99.90;;;;;;5100120;28;20040;-70
2022/09/13 10:02:58;;;;;;;5.53;1.00;;;20.30;99.90;;;;;;5079533;28;20039;-70
2022/09/13 10:05:25;;;;;;;3.63;1.10;;;20.20;99.90;;;;;;5112923;28;20519;-69
2022/09/13 10:08:02;;;;;;;6.28;0.90;;;20.20;99.90;;;;;;5109741;28;20055;-74
2022/09/13 10:10:41;;;;;;;7.60;1.00;;;20.20;99.90;;;;;;5112996;28;20040;-73
2022/09/13 10:13:15;;;;;;;5.22;1.00;;;20.00;99.90;;;;;;5092402;28;20067;-74
2022/09/13 10:15:59;;;;;;;5.88;1.00;;;20.20;99.90;;;;;;5110769;28;20361;-74
2022/09/13 10:18:30;;;;;;;8.60;0.90;;;20.20;99.90;;;;;;5116081;28;20032;-74
2022/09/13 10:21:25;;;;;;;6.53;1.00;;;20.20;99.90;;;;;;5093637;28;20032;-74
2022/09/13 10:24:12;;;;;;;7.90;1.10;;;20.10;99.90;;;;;;5085743;28;20672;-70
2022/09/13 10:26:37;;;;;;;5.00;1.00;;;20.30;99.90;;;;;;5113493;28;20097;-72
2022/09/13 10:29:09;;;;;;;6.20;0.93;;;20.40;99.90;;;;;;5115398;28;20039;-72
2022/09/13 10:31:37;;;;;;;7.00;1.13;;;20.40;99.90;;;;;;5106929;27;20572;-72
2022/09/13 10:34:19;;;;;;;4.65;0.80;;;20.30;99.90;;;;;;5113123;27;20027;-72
2022/09/13 10:37:09;;;;;;;;;;;20.30;99.90;;;;;;5112376;28;20084;-72
2022/09/13 10:39:35;;;;;;;4.20;1.00;;;20.20;99.90;;;;;;5114872;28;19915;-72
2022/09/13 10:42:05;;;;;;;4.00;0.70;;;20.30;99.90;;;;;;5096568;28;20044;-72
2022/09/13 10:44:51;;;;;;;4.50;0.80;;;20.40;99.90;;;;;;5095921;28;20557;-72
2022/09/13 10:47:22;;;;;;;4.97;0.90;;;20.40;99.90;;;;;;5105148;28;20044;-72
2022/09/13 10:49:51;;;;;;;7.35;1.10;;;20.50;99.90;;;;;;5114126;28;20039;-72
2022/09/13 10:52:24;;;;;;;6.93;0.90;;;20.50;99.90;;;;;;5096111;28;20043;-73
2022/09/13 10:54:50;;;;;;;7.47;1.00;;;20.50;99.90;;;;;;5098640;28;20047;-73
2022/09/13 10:57:32;;;;;;;4.70;0.70;;;20.50;99.90;;;;;;5113866;28;20503;-72
2022/09/13 10:59:58;;;;;;;6.20;1.00;;;20.40;99.90;;;;;;5115651;28;20381;-73
2022/09/13 11:02:55;;;;;;;4.35;1.00;;;20.40;99.90;;;;;;5116400;28;20119;-72
2022/09/13 11:05:47;;;;;;;3.97;0.80;;;20.30;99.90;;;;;;5099252;28;20047;-72
2022/09/13 11:08:37;;;;;;;5.03;0.82;;;20.30;99.90;;;;;;5088505;28;20131;-72
2022/09/13 11:11:15;;;;;;;7.03;0.93;;;20.40;99.90;;;;;;5105295;28;20044;-72
2022/09/13 11:13:51;;;;;;;4.97;0.90;;;20.50;99.90;;;;;;5100095;28;20054;-72
2022/09/13 11:16:49;;;;;;;6.50;1.05;;;20.60;99.90;;;;;;5121288;27;20040;-72
2022/09/13 11:19:46;;;;;;;4.55;0.88;;;20.60;99.90;;;;;;5105122;28;20043;-72
2022/09/13 11:22:41;;;;;;;6.05;1.00;;;20.50;99.90;;;;;;5080858;27;20102;-72
2022/09/13 11:25:47;;;;;;;6.15;1.02;;;20.40;99.90;;;;;;5114379;27;20036;-72
2022/09/13 11:28:27;;;;;;;4.55;1.00;;;20.40;99.90;;;;;;5130482;27;20506;-72
2022/09/13 11:31:18;;;;;;;3.92;0.98;;;20.30;99.90;;;;;;5106082;27;20058;-72
2022/09/13 11:33:55;;;;;;;4.50;1.08;;;20.40;99.90;;;;;;5114812;28;20108;-72
2022/09/13 11:36:25;;;;;;;7.22;1.08;;;20.50;99.90;;;;;;5102943;28;20387;-72
2022/09/13 11:39:12;;;;;;;6.32;1.08;;;20.50;99.90;;;;;;5100729;28;20047;-72
2022/09/13 11:42:13;;;;;;;7.70;0.90;;;20.60;99.90;;;;;;5098356;28;20028;-73
2022/09/13 11:45:06;;;;;;;6.20;0.68;;;20.60;99.90;;;;;;5055048;28;20152;-72
2022/09/13 11:47:56;;;;;;;5.60;1.00;;;20.50;99.90;;;;;;5113547;28;20528;-72
2022/09/13 11:50:43;;;;;;;5.30;1.00;;;20.50;99.90;;;;;;5115797;28;20048;-72
2022/09/13 11:53:20;;;;;;;4.90;1.00;;;20.50;99.90;;;;;;5109009;28;20051;-73
2022/09/13 11:55:57;;;;;;;5.80;0.95;;;20.30;99.90;;;;;;5108991;27;20035;-73
2022/09/13 11:58:49;;;;;;;5.50;0.85;;;20.30;99.90;;;;;;5115313;28;20067;-73
2022/09/13 12:01:28;;;;;;;4.30;0.90;;;20.20;99.90;;;;;;5105865;28;20119;-73
2022/09/13 12:04:12;;;;;;;3.63;0.80;;;20.20;99.90;;;;;;5114900;28;20471;-72
2022/09/13 12:06:46;;;;;;;8.25;1.00;;;20.20;99.90;;;;;;5115430;28;20051;-72
2022/09/13 12:09:18;;;;;;;5.38;0.90;;;20.20;99.90;;;;;;5114741;28;20071;-72
2022/09/13 12:11:52;;;;;;;;;;;20.20;99.90;;;;;;5109593;28;20505;-72
2022/09/13 12:14:22;;;;;;;3.15;0.70;;;20.30;99.90;;;;;;5106152;28;19961;-73
2022/09/13 12:16:51;;;;;;;3.75;0.90;;;20.30;99.90;;;;;;5113884;27;20081;-73
2022/09/13 12:19:37;;;;;;;6.45;1.00;;;20.30;99.90;;;;;;5114207;28;20514;-73
2022/09/13 12:22:05;;;;;;;4.43;0.70;;;20.30;99.90;;;;;;5114139;28;20044;-73
2022/09/13 12:24:55;;;;;;;6.85;0.90;;;20.50;99.90;;;;;;5110907;28;20035;-73
2022/09/13 12:27:38;;;;;;;4.35;0.93;;;20.40;99.90;;;;;;5098927;28;20043;-74
2022/09/13 12:30:04;;;;;;;4.45;0.90;;;20.40;99.90;;;;;;5104963;28;20039;-75
2022/09/13 12:32:30;;;;;;;4.07;0.95;;;20.40;99.90;;;;;;5112907;28;20051;-74
2022/09/13 12:34:59;;;;;;;5.22;1.00;;;20.40;99.90;;;;;;5113839;28;20074;-74
2022/09/13 12:37:33;;;;;;;6.30;1.55;;;20.50;99.90;;;;;;5112041;28;20044;-74
2022/09/13 12:40:39;;;;;;;4.65;0.80;;;20.50;99.90;;;;;;5081841;28;20040;-74
2022/09/13 12:43:07;;;;;;;2.83;0.73;;;20.50;99.90;;;;;;5093909;28;20040;-74
2022/09/13 12:46:01;;;;;;;4.65;0.82;;;20.40;99.90;;;;;;5094154;28;20044;-74
2022/09/13 12:48:51;;;;;;;5.03;0.88;;;20.40;99.90;;;;;;5107402;28;20079;-74
2022/09/13 12:51:45;;;;;;;4.97;0.95;;;20.40;99.90;;;;;;5108029;28;20043;-75
2022/09/13 12:54:39;;;;;;;5.90;0.85;;;20.30;99.90;;;;;;5110649;28;20119;-74
2022/09/13 12:57:29;;;;;;;6.78;1.02;;;20.30;99.90;;;;;;5112770;28;20027;-74
2022/09/13 13:00:11;;;;;;;6.90;1.10;;;20.40;99.90;;;;;;5108523;28;20068;-74
2022/09/13 13:02:37;;;;;;;7.85;1.10;;;20.40;99.90;;;;;;5093339;28;20408;-74
2022/09/13 13:05:17;;;;;;;4.90;0.90;;;20.30;99.90;;;;;;5111063;28;20035;-75
2022/09/13 13:07:56;;;;;;;4.55;1.00;;;20.40;99.90;;;;;;5099226;28;20079;-75
2022/09/13 13:10:29;;;;;;;4.68;0.85;;;20.30;99.90;;;;;;5099228;28;20526;-74
2022/09/13 13:13:08;;;;;;;5.93;1.15;;;20.40;99.90;;;;;;5111653;28;20491;-74
2022/09/13 13:15:36;;;;;;;7.38;0.88;;;20.30;99.90;;;;;;5092253;28;20085;-73